Terminal Aerodrome Forecast
Issued by NWS Denver/Boulder, CO

Home | Current Version | Previous Version | Text Only | Print | Product List | Glossary On
Versions: 1 2 3 4 5 6 7 8 9 10 11 12 13 14 15 16 17 18 19 20 21 22 23 24 25 26 27 28 29 30 31 32 33 34 35 36 37 38 39 40
000
FTUS45 KBOU 171131
TAFDEN
TAF
KDEN 171131Z 1712/1818 01013KT P6SM SKC
     FM171400 12007KT P6SM SKC
     FM171700 17012KT P6SM FEW220
      TEMPO 1721/1801 18015G25KT
     FM180100 20013G22KT P6SM FEW220
     FM180500 24011KT P6SM FEW220
     FM180900 17015KT P6SM FEW150=

USA.gov is the U.S. government's official web portal to all federal, state and local government web resources and services.